createdAt,value
2019-05-26T00:00:13.516Z,0.00
2019-05-26T00:01:13.433Z,0.00
2019-05-26T00:02:13.379Z,0.00
2019-05-26T00:03:13.335Z,0.00
2019-05-26T00:04:13.282Z,0.00
2019-05-26T00:05:13.254Z,0.00
2019-05-26T00:06:13.178Z,0.00
2019-05-26T00:07:13.160Z,0.00
2019-05-26T00:08:13.079Z,0.00
2019-05-26T00:09:13.028Z,0.00
2019-05-26T00:10:12.987Z,0.00
2019-05-26T00:11:12.925Z,0.00
2019-05-26T00:12:15.843Z,0.00
2019-05-26T00:13:12.825Z,0.00
2019-05-26T00:14:12.773Z,0.00
2019-05-26T00:15:12.721Z,0.00
2019-05-26T00:16:12.684Z,0.00
2019-05-26T00:17:12.652Z,0.00
2019-05-26T00:18:12.572Z,0.00
2019-05-26T00:19:12.520Z,0.00
2019-05-26T00:20:12.501Z,0.00
2019-05-26T00:21:12.480Z,0.00
2019-05-26T00:22:12.399Z,0.00
2019-05-26T00:23:12.319Z,0.00
2019-05-26T00:24:12.264Z,0.00
2019-05-26T00:25:12.214Z,0.00
2019-05-26T00:26:12.207Z,0.00
2019-05-26T00:27:12.115Z,0.00
2019-05-26T00:28:12.063Z,0.00
2019-05-26T00:29:12.010Z,0.00
2019-05-26T00:30:11.965Z,0.00
2019-05-26T00:31:11.943Z,0.00
2019-05-26T00:32:11.857Z,0.00
2019-05-26T00:33:11.838Z,0.00
2019-05-26T00:34:11.752Z,0.00
2019-05-26T00:35:11.702Z,0.00
2019-05-26T00:36:11.659Z,0.00
2019-05-26T00:37:11.633Z,0.00
2019-05-26T00:38:11.593Z,0.00
2019-05-26T00:39:11.500Z,0.00
2019-05-26T00:40:11.449Z,0.00
2019-05-26T00:41:11.394Z,0.00
2019-05-26T00:42:11.389Z,0.00
2019-05-26T00:43:11.296Z,0.00
2019-05-26T00:44:11.243Z,0.00
2019-05-26T00:45:11.192Z,0.00
2019-05-26T00:46:11.144Z,0.00
2019-05-26T00:47:11.121Z,0.00
2019-05-26T00:48:11.054Z,0.00
2019-05-26T00:49:11.011Z,0.00
2019-05-26T00:50:10.932Z,0.00
2019-05-26T00:51:10.883Z,0.00
2019-05-26T00:52:10.864Z,0.00
2019-05-26T00:53:10.780Z,0.00
2019-05-26T00:54:10.728Z,0.00
2019-05-26T00:55:10.677Z,0.00
2019-05-26T00:56:10.626Z,0.00
2019-05-26T00:57:10.610Z,0.00
2019-05-26T00:58:10.520Z,0.00
2019-05-26T00:59:10.499Z,0.00
2019-05-26T01:00:10.427Z,0.00
2019-05-26T01:01:10.368Z,0.00
2019-05-26T01:02:10.314Z,0.00
2019-05-26T01:03:10.267Z,0.00
2019-05-26T01:04:10.258Z,0.00
2019-05-26T01:05:10.193Z,0.00
2019-05-26T01:06:10.109Z,0.00
2019-05-26T01:07:10.056Z,0.00
2019-05-26T01:08:10.007Z,0.00
2019-05-26T01:09:09.986Z,0.00
2019-05-26T01:10:09.912Z,0.00
2019-05-26T01:11:09.854Z,0.00
2019-05-26T01:12:09.799Z,0.00
2019-05-26T01:13:09.778Z,0.00
2019-05-26T01:14:09.694Z,0.00
2019-05-26T01:15:09.645Z,0.00
2019-05-26T01:16:09.595Z,0.00
2019-05-26T01:17:09.538Z,0.00
2019-05-26T01:18:09.520Z,0.00
2019-05-26T01:19:09.463Z,0.00
2019-05-26T01:20:09.385Z,0.00
2019-05-26T01:21:09.338Z,0.00
2019-05-26T01:22:09.279Z,0.00
2019-05-26T01:23:09.227Z,0.00
2019-05-26T01:24:09.208Z,0.00
2019-05-26T01:25:09.121Z,0.00
2019-05-26T01:26:09.082Z,0.00
2019-05-26T01:27:09.019Z,0.00
2019-05-26T01:28:08.968Z,0.00
2019-05-26T01:29:09.001Z,0.00
2019-05-26T01:30:08.865Z,0.00
2019-05-26T01:31:08.814Z,0.00
2019-05-26T01:32:08.763Z,0.00
2019-05-26T01:33:08.708Z,0.00
2019-05-26T01:34:08.690Z,0.00
2019-05-26T01:35:08.611Z,0.00
2019-05-26T01:36:08.552Z,0.00
2019-05-26T01:37:08.498Z,0.00
2019-05-26T01:38:22.389Z,0.00
2019-05-26T01:39:08.398Z,0.00
2019-05-26T01:40:08.382Z,0.00
2019-05-26T01:41:08.290Z,0.00
2019-05-26T01:42:08.398Z,0.00
2019-05-26T01:43:08.188Z,0.00
2019-05-26T01:44:08.177Z,0.00
2019-05-26T01:45:08.111Z,0.00
2019-05-26T01:46:08.036Z,0.00
2019-05-26T01:47:07.979Z,0.00
2019-05-26T01:48:07.931Z,0.00
2019-05-26T01:49:07.911Z,0.00
2019-05-26T01:50:07.824Z,0.00
2019-05-26T01:51:07.771Z,0.00
2019-05-26T01:52:07.726Z,0.00
2019-05-26T01:53:07.667Z,0.00
2019-05-26T01:54:07.645Z,0.00
2019-05-26T01:55:07.560Z,0.00
2019-05-26T01:56:07.511Z,0.00
2019-05-26T01:57:07.487Z,0.00
2019-05-26T01:58:07.412Z,0.00
2019-05-26T01:59:07.358Z,0.00
2019-05-26T02:00:07.300Z,0.00
2019-05-26T02:01:07.308Z,0.00
2019-05-26T02:02:07.227Z,0.00
2019-05-26T02:03:07.143Z,0.00
2019-05-26T02:04:07.090Z,0.00
2019-05-26T02:05:07.075Z,0.00
2019-05-26T02:06:06.991Z,0.00
2019-05-26T02:07:06.933Z,0.00
2019-05-26T02:08:06.880Z,0.00
2019-05-26T02:09:06.857Z,0.00
2019-05-26T02:10:06.781Z,0.00
2019-05-26T02:11:06.723Z,0.00
2019-05-26T02:12:06.679Z,0.00
2019-05-26T02:13:06.617Z,0.00
2019-05-26T02:14:06.599Z,0.00
2019-05-26T02:15:06.517Z,0.00
2019-05-26T02:16:06.463Z,0.00
2019-05-26T02:17:06.405Z,0.00
2019-05-26T02:18:06.379Z,0.00
2019-05-26T02:19:06.303Z,0.00
2019-05-26T02:20:06.249Z,0.00
2019-05-26T02:21:06.329Z,0.00
2019-05-26T02:22:06.144Z,0.00
2019-05-26T02:23:06.092Z,0.00
2019-05-26T02:24:06.077Z,0.00
2019-05-26T02:25:06.014Z,0.00
2019-05-26T02:26:05.932Z,0.00
2019-05-26T02:27:05.877Z,0.00
2019-05-26T02:28:05.829Z,0.00
2019-05-26T02:29:05.772Z,0.00
2019-05-26T02:30:05.778Z,0.00
2019-05-26T02:31:05.684Z,0.00
2019-05-26T02:32:05.615Z,0.00
2019-05-26T02:33:05.561Z,0.00
2019-05-26T02:34:05.509Z,0.00
2019-05-26T02:35:05.489Z,0.00
2019-05-26T02:36:05.438Z,0.00
2019-05-26T02:37:05.356Z,0.00
2019-05-26T02:38:05.309Z,0.00
2019-05-26T02:39:05.253Z,0.00
2019-05-26T02:40:05.237Z,0.00
2019-05-26T02:41:05.139Z,0.00
2019-05-26T02:42:05.103Z,0.00
2019-05-26T02:43:05.034Z,0.00
2019-05-26T02:44:04.984Z,0.00
2019-05-26T02:45:04.971Z,0.00
2019-05-26T02:46:04.877Z,0.00
2019-05-26T02:47:04.823Z,0.00
2019-05-26T02:48:04.771Z,0.00
2019-05-26T02:49:04.715Z,0.00
2019-05-26T02:50:04.708Z,0.00
2019-05-26T02:51:04.611Z,0.00
2019-05-26T02:52:04.578Z,0.00
2019-05-26T02:53:04.507Z,0.00
2019-05-26T02:54:04.452Z,0.00
2019-05-26T02:55:04.442Z,0.00
2019-05-26T02:56:06.862Z,0.00
2019-05-26T02:57:04.297Z,0.00
2019-05-26T02:58:04.237Z,0.00
2019-05-26T02:59:04.187Z,0.00
2019-05-26T03:00:04.177Z,0.00
2019-05-26T03:01:04.082Z,0.00
2019-05-26T03:02:04.791Z,0.00
2019-05-26T03:03:03.972Z,0.00
2019-05-26T03:04:03.926Z,0.00
2019-05-26T03:05:03.904Z,0.00
2019-05-26T03:06:03.811Z,0.00
2019-05-26T03:07:03.759Z,0.00
2019-05-26T03:08:03.705Z,0.00
2019-05-26T03:09:21.215Z,0.00
2019-05-26T03:10:03.646Z,0.00
2019-05-26T03:11:03.546Z,0.00
2019-05-26T03:12:03.494Z,0.00
2019-05-26T03:13:03.438Z,0.00
2019-05-26T03:14:03.387Z,0.00
2019-05-26T03:15:03.362Z,0.00
2019-05-26T03:16:03.285Z,0.00
2019-05-26T03:17:03.227Z,0.00
2019-05-26T03:18:03.173Z,0.00
2019-05-26T03:19:03.119Z,0.00
2019-05-26T03:20:03.101Z,0.00
2019-05-26T03:21:03.047Z,0.00
2019-05-26T03:22:02.959Z,0.00
2019-05-26T03:23:02.905Z,0.00
2019-05-26T03:24:02.849Z,0.00
2019-05-26T03:25:02.800Z,5.63
2019-05-26T03:26:02.789Z,5.63
2019-05-26T03:27:02.693Z,5.63
2019-05-26T03:28:02.636Z,5.63
2019-05-26T03:29:02.588Z,5.63
2019-05-26T03:30:02.534Z,5.63
2019-05-26T03:31:02.523Z,5.63
2019-05-26T03:32:02.425Z,5.63
2019-05-26T03:33:02.373Z,5.63
2019-05-26T03:34:02.318Z,5.63
2019-05-26T03:35:02.274Z,11.25
2019-05-26T03:36:02.240Z,11.25
2019-05-26T03:37:02.153Z,11.25
2019-05-26T03:38:02.198Z,11.25
2019-05-26T03:39:02.046Z,11.25
2019-05-26T03:40:01.993Z,11.25
2019-05-26T03:41:01.972Z,11.25
2019-05-26T03:42:01.889Z,11.25
2019-05-26T03:43:01.838Z,11.25
2019-05-26T03:44:01.784Z,16.88
2019-05-26T03:45:01.729Z,16.88
2019-05-26T03:46:01.701Z,16.88
2019-05-26T03:47:01.622Z,16.88
2019-05-26T03:48:01.566Z,16.88
2019-05-26T03:49:01.526Z,16.88
2019-05-26T03:50:01.491Z,16.88
2019-05-26T03:51:01.436Z,16.88
2019-05-26T03:52:01.351Z,16.88
2019-05-26T03:53:01.299Z,22.50
2019-05-26T03:54:01.271Z,22.50
2019-05-26T03:55:01.188Z,22.50
2019-05-26T03:56:01.172Z,22.50
2019-05-26T03:57:01.087Z,22.50
2019-05-26T03:58:01.037Z,22.50
2019-05-26T03:59:00.976Z,22.50
2019-05-26T04:00:00.921Z,28.13
2019-05-26T04:01:00.901Z,28.13
2019-05-26T04:02:00.813Z,28.13
2019-05-26T04:03:00.759Z,28.13
2019-05-26T04:04:00.743Z,28.13
2019-05-26T04:05:00.650Z,28.13
2019-05-26T04:06:00.604Z,33.75
2019-05-26T04:07:00.578Z,33.75
2019-05-26T04:08:04.345Z,33.75
2019-05-26T04:09:00.461Z,33.75
2019-05-26T04:10:05.294Z,33.75
2019-05-26T04:11:00.330Z,33.75
2019-05-26T04:12:00.277Z,39.38
2019-05-26T04:13:00.265Z,39.38
2019-05-26T04:14:00.174Z,39.38
2019-05-26T04:15:00.145Z,39.38
2019-05-26T04:16:00.067Z,39.38
2019-05-26T04:17:00.057Z,39.38
2019-05-26T04:17:59.964Z,45.00
2019-05-26T04:18:59.902Z,45.00
2019-05-26T04:19:59.995Z,45.00
2019-05-26T04:20:59.805Z,45.00
2019-05-26T04:21:59.741Z,45.00
2019-05-26T04:22:59.686Z,45.00
2019-05-26T04:23:59.632Z,50.63
2019-05-26T04:24:59.613Z,50.63
2019-05-26T04:25:59.525Z,50.63
2019-05-26T04:26:59.472Z,50.63
2019-05-26T04:27:59.419Z,50.63
2019-05-26T04:28:59.366Z,50.63
2019-05-26T04:29:59.341Z,50.63
2019-05-26T04:30:59.266Z,50.63
2019-05-26T04:32:02.070Z,50.63
2019-05-26T04:32:59.156Z,50.63
2019-05-26T04:33:59.099Z,50.63
2019-05-26T04:34:59.076Z,56.25
2019-05-26T04:35:58.992Z,56.25
2019-05-26T04:36:58.936Z,56.25
2019-05-26T04:37:58.885Z,56.25
2019-05-26T04:38:58.831Z,61.88
2019-05-26T04:39:58.810Z,61.88
2019-05-26T04:40:58.722Z,61.88
2019-05-26T04:41:58.671Z,61.88
2019-05-26T04:42:58.629Z,61.88
2019-05-26T04:43:58.564Z,61.88
2019-05-26T04:44:58.561Z,67.50
2019-05-26T04:45:58.457Z,67.50
2019-05-26T04:46:58.412Z,67.50
2019-05-26T04:47:58.384Z,67.50
2019-05-26T04:48:58.296Z,67.50
2019-05-26T04:49:58.288Z,73.13
2019-05-26T04:50:58.191Z,73.13
2019-05-26T04:51:58.135Z,73.13
2019-05-26T04:53:06.203Z,73.13
2019-05-26T04:53:58.030Z,73.13
2019-05-26T04:54:57.977Z,73.13
2019-05-26T04:55:57.921Z,78.75
2019-05-26T04:56:57.867Z,78.75
2019-05-26T04:57:57.837Z,78.75
2019-05-26T04:58:57.760Z,78.75
2019-05-26T04:59:57.713Z,78.75
2019-05-26T05:00:57.696Z,78.75
2019-05-26T05:01:57.605Z,78.75
2019-05-26T05:02:57.548Z,78.75
2019-05-26T05:03:57.495Z,78.75
2019-05-26T05:04:57.444Z,84.38
2019-05-26T05:05:57.436Z,84.38
2019-05-26T05:06:57.334Z,84.38
2019-05-26T05:07:57.284Z,84.38
2019-05-26T05:08:57.227Z,84.38
2019-05-26T05:09:57.178Z,90.00
2019-05-26T05:10:57.156Z,90.00
2019-05-26T05:11:57.069Z,90.00
2019-05-26T05:12:57.014Z,90.00
2019-05-26T05:13:56.963Z,90.00
2019-05-26T05:14:56.914Z,95.63
2019-05-26T05:15:56.890Z,95.63
2019-05-26T05:16:56.803Z,95.63
2019-05-26T05:17:56.750Z,95.63
2019-05-26T05:18:56.699Z,95.63
2019-05-26T05:19:56.683Z,95.63
2019-05-26T05:20:56.635Z,101.25
2019-05-26T05:21:56.560Z,101.25
2019-05-26T05:22:56.488Z,101.25
2019-05-26T05:23:56.435Z,101.25
2019-05-26T05:24:56.383Z,101.25
2019-05-26T05:25:56.358Z,101.25
2019-05-26T05:26:56.274Z,101.25
2019-05-26T05:27:56.233Z,101.25
2019-05-26T05:28:56.172Z,101.25
2019-05-26T05:29:56.147Z,101.25
2019-05-26T05:30:56.095Z,106.88
2019-05-26T05:31:56.012Z,106.88
2019-05-26T05:32:55.960Z,106.88
2019-05-26T05:33:55.939Z,106.88
2019-05-26T05:34:55.853Z,106.88
2019-05-26T05:35:55.800Z,106.88
2019-05-26T05:36:55.747Z,106.88
2019-05-26T05:37:55.698Z,112.50
2019-05-26T05:38:55.676Z,112.50
2019-05-26T05:39:55.598Z,112.50
2019-05-26T05:40:59.895Z,112.50
2019-05-26T05:41:55.488Z,118.13
2019-05-26T05:42:55.436Z,118.13
2019-05-26T05:43:55.421Z,118.13
2019-05-26T05:44:55.339Z,118.13
2019-05-26T05:45:55.312Z,118.13
2019-05-26T05:46:55.257Z,118.13
2019-05-26T05:47:55.178Z,118.13
2019-05-26T05:48:55.123Z,123.75
2019-05-26T05:49:55.143Z,118.13
2019-05-26T05:50:55.052Z,118.13
2019-05-26T05:51:54.966Z,118.13
2019-05-26T05:52:54.913Z,118.13
2019-05-26T05:53:54.872Z,118.13
2019-05-26T05:54:54.818Z,123.75
2019-05-26T05:55:54.794Z,123.75
2019-05-26T05:56:55.774Z,129.38
2019-05-26T05:57:54.656Z,135.00
2019-05-26T05:58:54.604Z,135.00
2019-05-26T05:59:54.591Z,135.00
2019-05-26T06:00:54.499Z,140.63
2019-05-26T06:01:54.446Z,140.63
2019-05-26T06:02:54.403Z,146.25
2019-05-26T06:03:54.343Z,146.25
2019-05-26T06:04:54.328Z,146.25
2019-05-26T06:05:54.274Z,146.25
2019-05-26T06:06:54.189Z,151.88
2019-05-26T06:07:54.138Z,151.88
2019-05-26T06:08:54.087Z,151.88
2019-05-26T06:09:54.035Z,151.88
2019-05-26T06:10:54.014Z,151.88
2019-05-26T06:11:56.854Z,157.50
2019-05-26T06:12:53.955Z,157.50
2019-05-26T06:13:53.869Z,157.50
2019-05-26T06:14:53.776Z,157.50
2019-05-26T06:15:53.725Z,157.50
2019-05-26T06:16:53.675Z,157.50
2019-05-26T06:17:53.623Z,157.50
2019-05-26T06:18:53.610Z,157.50
2019-05-26T06:19:53.521Z,157.50
2019-05-26T06:20:53.469Z,157.50
2019-05-26T06:21:53.418Z,157.50
2019-05-26T06:22:53.367Z,163.13
2019-05-26T06:23:53.348Z,163.13
2019-05-26T06:24:53.266Z,163.13
2019-05-26T06:25:53.218Z,163.13
2019-05-26T06:26:53.194Z,157.50
2019-05-26T06:27:53.114Z,157.50
2019-05-26T06:28:53.101Z,157.50
2019-05-26T06:29:58.959Z,157.50
2019-05-26T06:30:52.958Z,157.50
2019-05-26T06:31:53.286Z,157.50
2019-05-26T06:32:52.856Z,157.50
2019-05-26T06:33:52.837Z,163.13
2019-05-26T06:34:52.760Z,168.75
2019-05-26T06:35:52.702Z,168.75
2019-05-26T06:36:52.651Z,168.75
2019-05-26T06:37:52.636Z,168.75
2019-05-26T06:38:52.549Z,168.75
2019-05-26T06:39:52.502Z,168.75
2019-05-26T06:40:52.449Z,168.75
2019-05-26T06:41:52.399Z,168.75
2019-05-26T06:42:52.378Z,174.38
2019-05-26T06:43:52.297Z,168.75
2019-05-26T06:44:53.863Z,168.75
2019-05-26T06:45:52.196Z,174.38
2019-05-26T06:46:52.144Z,174.38
2019-05-26T06:47:52.091Z,174.38
2019-05-26T06:48:52.041Z,174.38
2019-05-26T06:49:52.023Z,174.38
2019-05-26T06:50:51.941Z,180.00
2019-05-26T06:51:51.893Z,180.00
2019-05-26T06:52:51.838Z,180.00
2019-05-26T06:53:51.838Z,185.63
2019-05-26T06:54:51.773Z,185.63
2019-05-26T06:55:51.687Z,191.25
2019-05-26T06:56:51.637Z,191.25
2019-05-26T06:57:51.586Z,196.88
2019-05-26T06:58:51.535Z,196.88
2019-05-26T06:59:51.518Z,196.88
2019-05-26T07:00:51.435Z,202.50
2019-05-26T07:01:51.388Z,202.50
2019-05-26T07:02:51.335Z,208.13
2019-05-26T07:03:51.288Z,208.13
2019-05-26T07:04:51.275Z,208.13
2019-05-26T07:05:51.182Z,208.13
2019-05-26T07:06:51.160Z,202.50
2019-05-26T07:07:51.088Z,202.50
2019-05-26T07:08:51.039Z,208.13
2019-05-26T07:09:51.023Z,208.13
2019-05-26T07:10:50.946Z,208.13
2019-05-26T07:11:59.110Z,213.75
2019-05-26T07:12:50.833Z,219.38
2019-05-26T07:13:50.785Z,219.38
2019-05-26T07:14:50.767Z,225.00
2019-05-26T07:15:50.684Z,225.00
2019-05-26T07:16:50.631Z,225.00
2019-05-26T07:17:50.613Z,230.63
2019-05-26T07:18:50.534Z,230.63
2019-05-26T07:19:50.485Z,230.63
2019-05-26T07:20:50.503Z,236.25
2019-05-26T07:21:50.390Z,241.88
2019-05-26T07:22:50.367Z,236.25
2019-05-26T07:23:50.286Z,241.88
2019-05-26T07:24:50.234Z,241.88
2019-05-26T07:25:50.216Z,247.50
2019-05-26T07:26:50.137Z,247.50
2019-05-26T07:27:50.086Z,247.50
2019-05-26T07:28:50.037Z,247.50
2019-05-26T07:29:49.989Z,247.50
2019-05-26T07:30:49.970Z,247.50
2019-05-26T07:31:49.887Z,253.13
2019-05-26T07:32:49.870Z,258.75
2019-05-26T07:33:49.792Z,253.13
2019-05-26T07:34:49.746Z,258.75
2019-05-26T07:35:50.031Z,253.13
2019-05-26T07:36:49.644Z,253.13
2019-05-26T07:37:49.637Z,253.13
2019-05-26T07:38:49.544Z,253.13
2019-05-26T07:39:49.497Z,241.88
2019-05-26T07:40:49.447Z,247.50
2019-05-26T07:42:08.216Z,247.50
2019-05-26T07:42:49.380Z,247.50
2019-05-26T07:43:49.303Z,247.50
2019-05-26T07:44:49.254Z,247.50
2019-05-26T07:45:49.225Z,247.50
2019-05-26T07:46:49.179Z,247.50
2019-05-26T07:47:49.196Z,253.13
2019-05-26T07:48:49.059Z,253.13
2019-05-26T07:49:49.012Z,258.75
2019-05-26T07:50:48.965Z,270.00
2019-05-26T07:51:48.910Z,270.00
2019-05-26T07:52:48.887Z,275.63
2019-05-26T07:53:48.816Z,281.25
2019-05-26T07:54:48.767Z,286.88
2019-05-26T07:55:48.717Z,292.50
2019-05-26T07:56:48.671Z,298.13
2019-05-26T07:57:48.650Z,292.50
2019-05-26T07:58:48.571Z,286.88
2019-05-26T07:59:48.569Z,281.25
2019-05-26T08:00:48.500Z,281.25
2019-05-26T08:01:48.465Z,292.50
2019-05-26T08:02:48.380Z,298.13
2019-05-26T08:03:48.335Z,309.38
2019-05-26T08:04:48.884Z,315.00
2019-05-26T08:05:48.256Z,320.63
2019-05-26T08:06:48.218Z,320.63
2019-05-26T08:07:48.167Z,326.25
2019-05-26T08:08:48.096Z,331.88
2019-05-26T08:09:48.041Z,337.50
2019-05-26T08:10:47.995Z,337.50
2019-05-26T08:11:47.947Z,343.13
2019-05-26T08:12:47.929Z,343.13
2019-05-26T08:13:47.852Z,348.75
2019-05-26T08:14:47.802Z,343.13
2019-05-26T08:15:47.754Z,354.38
2019-05-26T08:16:47.708Z,354.38
2019-05-26T08:17:47.692Z,354.38
2019-05-26T08:18:47.654Z,360.00
2019-05-26T08:19:47.567Z,360.00
2019-05-26T08:20:47.544Z,354.38
2019-05-26T08:21:47.472Z,354.38
2019-05-26T08:22:47.478Z,343.13
2019-05-26T08:23:47.406Z,348.75
2019-05-26T08:24:47.358Z,348.75
2019-05-26T08:25:47.345Z,371.25
2019-05-26T08:26:47.235Z,365.63
2019-05-26T08:27:47.216Z,360.00
2019-05-26T08:28:47.140Z,365.63
2019-05-26T08:29:47.094Z,376.88
2019-05-26T08:30:47.049Z,376.88
2019-05-26T08:31:47.013Z,376.88
2019-05-26T08:32:46.981Z,376.88
2019-05-26T08:33:46.943Z,376.88
2019-05-26T08:34:46.859Z,388.13
2019-05-26T08:35:46.815Z,393.75
2019-05-26T08:36:46.766Z,393.75
2019-05-26T08:37:46.750Z,388.13
2019-05-26T08:38:46.674Z,405.00
2019-05-26T08:39:48.436Z,393.75
2019-05-26T08:40:46.579Z,393.75
2019-05-26T08:41:46.534Z,393.75
2019-05-26T08:42:46.514Z,399.38
2019-05-26T08:43:46.443Z,410.63
2019-05-26T08:44:46.395Z,410.63
2019-05-26T08:45:46.350Z,410.63
2019-05-26T08:46:46.334Z,410.63
2019-05-26T08:47:46.258Z,410.63
2019-05-26T08:48:46.212Z,421.88
2019-05-26T08:49:47.001Z,416.25
2019-05-26T08:50:46.135Z,416.25
2019-05-26T08:51:46.079Z,416.25
2019-05-26T08:52:46.030Z,421.88
2019-05-26T08:53:45.988Z,416.25
2019-05-26T08:54:45.939Z,416.25
2019-05-26T08:55:45.926Z,410.63
2019-05-26T08:56:45.854Z,421.88
2019-05-26T08:57:45.806Z,416.25
2019-05-26T08:58:45.790Z,410.63
2019-05-26T08:59:45.717Z,410.63
2019-05-26T09:00:45.670Z,405.00
2019-05-26T09:01:45.622Z,405.00
2019-05-26T09:02:45.580Z,416.25
2019-05-26T09:03:45.571Z,416.25
2019-05-26T09:04:45.522Z,410.63
2019-05-26T09:05:45.446Z,405.00
2019-05-26T09:06:45.406Z,405.00
2019-05-26T09:07:45.396Z,393.75
2019-05-26T09:08:45.312Z,388.13
2019-05-26T09:09:45.344Z,388.13
2019-05-26T09:10:45.252Z,405.00
2019-05-26T09:11:45.189Z,399.38
2019-05-26T09:12:59.622Z,388.13
2019-05-26T09:13:45.093Z,399.38
2019-05-26T09:14:45.050Z,393.75
2019-05-26T09:15:45.035Z,382.50
2019-05-26T09:16:44.958Z,365.63
2019-05-26T09:17:44.916Z,382.50
2019-05-26T09:18:44.870Z,388.13
2019-05-26T09:19:44.828Z,388.13
2019-05-26T09:20:44.812Z,405.00
2019-05-26T09:21:44.739Z,405.00
2019-05-26T09:22:44.709Z,405.00
2019-05-26T09:23:44.653Z,405.00
2019-05-26T09:24:44.603Z,399.38
2019-05-26T09:25:46.473Z,399.38
2019-05-26T09:26:44.521Z,405.00
2019-05-26T09:27:44.475Z,405.00
2019-05-26T09:28:44.535Z,405.00
2019-05-26T09:29:44.387Z,405.00
2019-05-26T09:30:44.347Z,399.38
2019-05-26T09:31:44.319Z,399.38
2019-05-26T09:32:44.262Z,399.38
2019-05-26T09:33:44.252Z,393.75
2019-05-26T09:34:44.176Z,382.50
2019-05-26T09:35:44.136Z,388.13
2019-05-26T09:36:44.085Z,382.50
2019-05-26T09:37:44.042Z,382.50
2019-05-26T09:38:44.026Z,388.13
2019-05-26T09:39:43.962Z,405.00
2019-05-26T09:40:43.940Z,405.00
2019-05-26T09:41:43.897Z,405.00
2019-05-26T09:42:43.829Z,410.63
2019-05-26T09:43:43.779Z,410.63
2019-05-26T09:44:43.734Z,410.63
2019-05-26T09:45:43.698Z,416.25
2019-05-26T09:46:43.681Z,416.25
2019-05-26T09:47:43.613Z,309.38
2019-05-26T09:48:43.563Z,309.38
2019-05-26T09:49:43.521Z,303.75
2019-05-26T09:50:43.514Z,298.13
2019-05-26T09:51:43.439Z,405.00
2019-05-26T09:52:43.426Z,421.88
2019-05-26T09:53:43.351Z,354.38
2019-05-26T09:54:43.310Z,405.00
2019-05-26T09:55:43.302Z,388.13
2019-05-26T09:56:43.220Z,331.88
2019-05-26T09:57:43.190Z,281.25
2019-05-26T09:58:43.135Z,365.63
2019-05-26T09:59:43.126Z,286.88
2019-05-26T10:00:43.086Z,292.50
2019-05-26T10:01:43.012Z,337.50
2019-05-26T10:02:42.967Z,376.88
2019-05-26T10:03:42.921Z,382.50
2019-05-26T10:04:42.912Z,371.25
2019-05-26T10:05:42.841Z,376.88
2019-05-26T10:06:42.795Z,365.63
2019-05-26T10:07:42.755Z,388.13
2019-05-26T10:08:42.711Z,388.13
2019-05-26T10:09:42.703Z,399.38
2019-05-26T10:10:42.622Z,393.75
2019-05-26T10:11:42.614Z,399.38
2019-05-26T10:12:42.535Z,399.38
2019-05-26T10:13:42.499Z,399.38
2019-05-26T10:14:42.482Z,309.38
2019-05-26T10:15:42.414Z,399.38
2019-05-26T10:16:42.367Z,298.13
2019-05-26T10:17:42.327Z,410.63
2019-05-26T10:18:42.330Z,416.25
2019-05-26T10:19:42.242Z,421.88
2019-05-26T10:20:42.201Z,421.88
2019-05-26T10:21:42.156Z,298.13
2019-05-26T10:22:42.113Z,421.88
2019-05-26T10:23:42.118Z,427.50
2019-05-26T10:24:42.027Z,421.88
2019-05-26T10:25:41.995Z,421.88
2019-05-26T10:26:42.003Z,427.50
2019-05-26T10:27:41.919Z,433.13
2019-05-26T10:28:41.891Z,433.13
2019-05-26T10:29:41.817Z,433.13
2019-05-26T10:30:41.815Z,433.13
2019-05-26T10:31:41.734Z,433.13
2019-05-26T10:32:41.696Z,433.13
2019-05-26T10:33:41.650Z,421.88
2019-05-26T10:34:41.607Z,433.13
2019-05-26T10:35:41.597Z,421.88
2019-05-26T10:36:41.526Z,427.50
2019-05-26T10:37:41.482Z,427.50
2019-05-26T10:38:41.441Z,427.50
2019-05-26T10:39:44.827Z,427.50
2019-05-26T10:40:41.387Z,421.88
2019-05-26T10:41:41.352Z,416.25
2019-05-26T10:42:41.286Z,416.25
2019-05-26T10:43:47.210Z,427.50
2019-05-26T10:44:41.193Z,421.88
2019-05-26T10:45:41.151Z,405.00
2019-05-26T10:46:41.161Z,410.63
2019-05-26T10:47:41.079Z,421.88
2019-05-26T10:48:41.026Z,444.38
2019-05-26T10:49:41.018Z,433.13
2019-05-26T10:50:40.944Z,427.50
2019-05-26T10:51:40.908Z,427.50
2019-05-26T10:52:40.883Z,416.25
2019-05-26T10:53:40.822Z,405.00
2019-05-26T10:54:40.778Z,410.63
2019-05-26T10:55:40.739Z,399.38
2019-05-26T10:56:40.707Z,393.75
2019-05-26T10:57:40.684Z,399.38
2019-05-26T10:58:40.618Z,393.75
2019-05-26T10:59:40.606Z,393.75
2019-05-26T11:00:40.531Z,376.88
2019-05-26T11:01:40.490Z,365.63
2019-05-26T11:02:40.456Z,376.88
2019-05-26T11:03:40.406Z,348.75
2019-05-26T11:04:40.421Z,354.38
2019-05-26T11:05:40.323Z,337.50
2019-05-26T11:06:40.308Z,331.88
2019-05-26T11:07:40.242Z,320.63
2019-05-26T11:08:40.199Z,315.00
2019-05-26T11:09:40.159Z,331.88
2019-05-26T11:10:40.149Z,337.50
2019-05-26T11:11:40.087Z,337.50
2019-05-26T11:12:40.034Z,343.13
2019-05-26T11:13:40.802Z,331.88
2019-05-26T11:14:39.985Z,343.13
2019-05-26T11:15:39.907Z,360.00
2019-05-26T11:16:39.868Z,376.88
2019-05-26T11:17:39.825Z,382.50
2019-05-26T11:18:39.785Z,393.75
2019-05-26T11:19:39.767Z,399.38
2019-05-26T11:20:39.726Z,393.75
2019-05-26T11:21:39.660Z,388.13
2019-05-26T11:22:39.618Z,388.13
2019-05-26T11:23:39.580Z,393.75
2019-05-26T11:24:39.671Z,393.75
2019-05-26T11:25:39.493Z,405.00
2019-05-26T11:26:39.456Z,405.00
2019-05-26T11:27:39.411Z,399.38
2019-05-26T11:28:39.371Z,410.63
2019-05-26T11:29:39.359Z,405.00
2019-05-26T11:30:39.287Z,410.63
2019-05-26T11:31:39.251Z,410.63
2019-05-26T11:32:39.203Z,410.63
2019-05-26T11:33:39.167Z,416.25
2019-05-26T11:34:39.164Z,376.88
2019-05-26T11:35:39.142Z,405.00
2019-05-26T11:36:39.043Z,258.75
2019-05-26T11:37:39.001Z,405.00
2019-05-26T11:38:38.966Z,399.38
2019-05-26T11:39:38.961Z,405.00
2019-05-26T11:40:38.877Z,416.25
2019-05-26T11:41:38.838Z,416.25
2019-05-26T11:42:38.796Z,416.25
2019-05-26T11:43:38.812Z,410.63
2019-05-26T11:44:38.749Z,410.63
2019-05-26T11:45:38.674Z,405.00
2019-05-26T11:46:38.631Z,399.38
2019-05-26T11:47:38.600Z,393.75
2019-05-26T11:48:39.498Z,405.00
2019-05-26T11:49:38.549Z,410.63
2019-05-26T11:50:38.476Z,376.88
2019-05-26T11:51:38.430Z,253.13
2019-05-26T11:52:38.388Z,365.63
2019-05-26T11:53:38.347Z,326.25
2019-05-26T11:54:38.338Z,388.13
2019-05-26T11:55:38.300Z,393.75
2019-05-26T11:56:38.225Z,264.38
2019-05-26T11:57:38.191Z,393.75
2019-05-26T11:58:38.145Z,393.75
2019-05-26T11:59:38.111Z,343.13
2019-05-26T12:00:38.098Z,388.13
2019-05-26T12:01:38.023Z,388.13
2019-05-26T12:02:37.983Z,382.50
2019-05-26T12:03:37.943Z,388.13
2019-05-26T12:04:37.901Z,247.50
2019-05-26T12:05:37.897Z,236.25
2019-05-26T12:06:37.826Z,241.88
2019-05-26T12:07:37.784Z,393.75
2019-05-26T12:08:37.748Z,354.38
2019-05-26T12:09:37.749Z,236.25
2019-05-26T12:10:37.691Z,315.00
2019-05-26T12:11:37.618Z,399.38
2019-05-26T12:12:37.577Z,258.75
2019-05-26T12:13:37.537Z,247.50
2019-05-26T12:14:37.497Z,315.00
2019-05-26T12:15:37.488Z,230.63
2019-05-26T12:16:37.416Z,225.00
2019-05-26T12:17:37.412Z,371.25
2019-05-26T12:18:37.336Z,371.25
2019-05-26T12:19:37.298Z,360.00
2019-05-26T12:20:37.282Z,360.00
2019-05-26T12:21:37.214Z,354.38
2019-05-26T12:22:37.172Z,365.63
2019-05-26T12:23:37.164Z,365.63
2019-05-26T12:24:37.090Z,354.38
2019-05-26T12:25:37.088Z,360.00
2019-05-26T12:26:37.013Z,331.88
2019-05-26T12:27:36.973Z,230.63
2019-05-26T12:28:36.931Z,264.38
2019-05-26T12:29:36.895Z,365.63
2019-05-26T12:30:36.885Z,371.25
2019-05-26T12:31:36.812Z,365.63
2019-05-26T12:32:36.770Z,365.63
2019-05-26T12:33:36.730Z,331.88
2019-05-26T12:34:36.713Z,354.38
2019-05-26T12:35:36.648Z,286.88
2019-05-26T12:36:39.188Z,275.63
2019-05-26T12:37:36.568Z,365.63
2019-05-26T12:38:36.529Z,348.75
2019-05-26T12:39:36.526Z,309.38
2019-05-26T12:40:36.479Z,213.75
2019-05-26T12:41:37.324Z,343.13
2019-05-26T12:42:36.365Z,343.13
2019-05-26T12:43:36.336Z,303.75
2019-05-26T12:44:48.569Z,343.13